Time;durP1;ratioP1;P1;durP2;ratioP2;P2;SDS_P1;SDS_P2;PMS_P1;PMS_P2;Temp;Humidity;BMP_temperature;BMP_pressure;BME280_temperature;BME280_humidity;BME280_pressure;Samples;Min_cycle;Max_cycle;Signal;HPM_P1;HPM_P2
2022/07/19 00:00:28;;;;;;;2.00;1.17;;;19.80;60.80;;;;;;4990738;28;20065;-88
2022/07/19 00:02:54;;;;;;;3.10;1.67;;;19.80;60.60;;;;;;4989545;28;20089;-88
2022/07/19 00:05:20;;;;;;;4.43;1.55;;;19.80;60.40;;;;;;4990497;28;20034;-88
2022/07/19 00:07:46;;;;;;;2.63;1.10;;;19.80;60.60;;;;;;4990606;28;20026;-89
2022/07/19 00:10:14;;;;;;;2.72;1.30;;;19.80;60.00;;;;;;5000485;28;20050;-89
2022/07/19 00:12:48;;;;;;;4.57;1.48;;;19.80;60.30;;;;;;5029409;23;20500;-88
2022/07/19 00:15:15;;;;;;;6.10;1.73;;;19.80;60.30;;;;;;4970949;28;20034;-89
2022/07/19 00:17:43;;;;;;;2.65;1.42;;;19.80;60.60;;;;;;4956328;28;20263;-88
2022/07/19 00:20:14;;;;;;;1.77;1.23;;;19.70;60.50;;;;;;4971779;28;20038;-89
2022/07/19 00:22:46;;;;;;;3.65;1.50;;;19.70;60.70;;;;;;4962834;23;20050;-88
2022/07/19 00:25:12;;;;;;;2.08;1.50;;;19.70;61.20;;;;;;4971224;28;20086;-88
2022/07/19 00:27:40;;;;;;;9.48;2.13;;;19.60;61.80;;;;;;4970996;28;20484;-88
2022/07/19 00:30:07;;;;;;;1.90;1.50;;;19.50;61.70;;;;;;4970011;28;20129;-87
2022/07/19 00:32:33;;;;;;;4.07;1.65;;;19.40;62.00;;;;;;4970625;28;20483;-88
2022/07/19 00:35:05;;;;;;;5.10;1.73;;;19.40;62.20;;;;;;4953529;28;20049;-88
2022/07/19 00:37:30;;;;;;;8.07;1.63;;;19.30;62.20;;;;;;4970295;28;20506;-89
2022/07/19 00:39:56;;;;;;;7.38;1.52;;;19.30;62.50;;;;;;4954929;28;20030;-88
2022/07/19 00:42:22;;;;;;;4.57;1.70;;;19.30;62.90;;;;;;4953788;28;20054;-88
2022/07/19 00:44:48;;;;;;;2.13;1.25;;;19.30;63.00;;;;;;4969451;28;20138;-88
2022/07/19 00:47:21;;;;;;;1.50;1.15;;;19.30;62.90;;;;;;4955137;28;20065;-87
2022/07/19 00:49:47;;;;;;;4.10;1.67;;;19.20;63.30;;;;;;4954596;28;20038;-87
2022/07/19 00:52:14;;;;;;;4.43;1.35;;;19.10;63.70;;;;;;4953777;28;20102;-87
2022/07/19 00:54:42;;;;;;;12.20;1.65;;;19.00;64.30;;;;;;4970098;28;20036;-88
2022/07/19 00:57:10;;;;;;;3.17;1.80;;;18.90;64.90;;;;;;4955206;28;20619;-87
2022/07/19 00:59:43;;;;;;;3.60;1.90;;;18.80;65.40;;;;;;4954223;28;20515;-88
2022/07/19 01:02:11;;;;;;;2.53;1.90;;;18.80;66.80;;;;;;4954332;28;20038;-88
2022/07/19 01:04:37;;;;;;;8.60;1.73;;;18.60;66.20;;;;;;4950428;29;20027;-88
2022/07/19 02:47:04;;;;;;;4.50;2.03;;;18.00;71.00;;;;;;4963511;28;20109;-87
2022/07/19 02:49:30;;;;;;;6.03;2.17;;;17.90;71.30;;;;;;4959303;28;20733;-88
2022/07/19 02:51:55;;;;;;;2.30;1.52;;;17.80;71.60;;;;;;4976016;28;20039;-87
2022/07/19 02:54:21;;;;;;;3.88;2.53;;;17.70;72.60;;;;;;4973887;28;20055;-88
2022/07/19 02:56:53;;;;;;;2.97;1.95;;;17.60;74.60;;;;;;4975710;28;20031;-88
2022/07/19 02:59:19;;;;;;;9.38;2.15;;;17.40;75.70;;;;;;4975915;28;20046;-88
2022/07/19 03:01:44;;;;;;;4.15;2.35;;;17.30;77.20;;;;;;4972816;28;20748;-88
2022/07/19 03:04:10;;;;;;;2.83;2.25;;;17.10;78.20;;;;;;4973796;28;20039;-88
2022/07/19 03:06:36;;;;;;;2.75;1.80;;;17.00;80.00;;;;;;4973426;28;20031;-87
2022/07/19 03:09:02;;;;;;;7.10;2.30;;;16.80;80.50;;;;;;4973019;28;20027;-87
2022/07/19 03:11:31;;;;;;;4.63;2.00;;;16.70;81.10;;;;;;4972090;28;20039;-88
2022/07/19 03:13:56;;;;;;;3.65;2.33;;;16.60;81.70;;;;;;4972627;28;20789;-88
2022/07/19 03:16:22;;;;;;;4.95;2.20;;;16.50;82.60;;;;;;4973070;28;20038;-88
2022/07/19 03:18:48;;;;;;;2.33;1.90;;;16.40;83.70;;;;;;4985095;28;20022;-89
2022/07/19 03:21:14;;;;;;;4.40;2.05;;;16.30;85.00;;;;;;4977900;28;20046;-88
2022/07/19 03:23:40;;;;;;;6.78;2.50;;;16.20;86.00;;;;;;4974079;28;20057;-88
2022/07/19 03:26:09;;;;;;;7.85;2.53;;;16.20;86.60;;;;;;4971853;28;20035;-87
2022/07/19 03:28:35;;;;;;;4.95;2.10;;;16.00;87.10;;;;;;4971843;28;20126;-88
2022/07/19 03:31:01;;;;;;;4.57;2.40;;;16.00;87.90;;;;;;4973990;28;20121;-88
2022/07/19 03:33:27;;;;;;;3.90;2.17;;;16.00;89.00;;;;;;4971907;28;20060;-88
2022/07/19 03:35:53;;;;;;;6.00;2.10;;;15.90;89.30;;;;;;4971360;28;20384;-87
2022/07/19 03:38:20;;;;;;;3.55;2.00;;;15.90;90.10;;;;;;4963370;28;20031;-87
2022/07/19 03:40:56;;;;;;;4.68;2.67;;;15.90;90.90;;;;;;4967315;28;20035;-87
2022/07/19 03:43:23;;;;;;;5.85;2.45;;;15.90;91.50;;;;;;4970920;28;20105;-88
2022/07/19 03:45:49;;;;;;;3.15;2.00;;;15.90;92.00;;;;;;4955696;28;20114;-88
2022/07/19 03:48:15;;;;;;;6.35;2.45;;;15.90;92.50;;;;;;4971648;28;20039;-87
2022/07/19 03:50:48;;;;;;;8.35;2.67;;;15.90;93.10;;;;;;4956317;28;20105;-88
2022/07/19 03:53:14;;;;;;;5.00;2.30;;;15.80;93.70;;;;;;4953392;28;20444;-88
2022/07/19 03:55:40;;;;;;;5.53;3.03;;;15.80;94.50;;;;;;4955793;28;20034;-88
2022/07/19 03:58:05;;;;;;;8.93;3.05;;;15.80;95.30;;;;;;4970731;28;20054;-87
2022/07/19 04:00:31;;;;;;;5.72;2.30;;;15.90;95.80;;;;;;4971717;28;20490;-88
2022/07/19 04:03:07;;;;;;;5.90;2.70;;;15.90;96.20;;;;;;4971432;28;20037;-87
2022/07/19 04:05:34;;;;;;;3.83;2.58;;;15.90;96.00;;;;;;4972082;28;20018;-88
2022/07/19 04:07:59;;;;;;;7.90;2.63;;;15.90;96.10;;;;;;4955364;28;20077;-87
2022/07/19 04:10:25;;;;;;;5.05;2.60;;;16.00;95.00;;;;;;4971042;28;20030;-88
2022/07/19 04:12:52;;;;;;;4.18;2.65;;;16.20;94.10;;;;;;4955534;28;20054;-88
2022/07/19 04:15:25;;;;;;;4.97;2.53;;;16.40;93.20;;;;;;4955192;28;20077;-87
2022/07/19 04:17:51;;;;;;;4.63;2.72;;;16.70;91.90;;;;;;4959106;28;20042;-88
2022/07/19 04:20:17;;;;;;;5.88;2.50;;;16.90;90.90;;;;;;4976080;28;20062;-87
2022/07/19 04:22:43;;;;;;;3.97;2.38;;;17.20;90.40;;;;;;4974541;28;20066;-87
2022/07/19 04:25:09;;;;;;;4.03;2.60;;;17.40;90.20;;;;;;4974155;28;20042;-88
2022/07/19 04:27:44;;;;;;;4.10;2.35;;;17.50;89.30;;;;;;4969572;28;20027;-88
2022/07/19 04:30:10;;;;;;;4.15;2.63;;;17.70;88.60;;;;;;4978549;28;20027;-88
2022/07/19 04:32:36;;;;;;;3.70;2.53;;;17.80;88.60;;;;;;4957867;28;20085;-88
2022/07/19 04:35:02;;;;;;;3.03;2.15;;;17.90;88.70;;;;;;4973736;28;20450;-89
2022/07/19 04:37:27;;;;;;;5.55;2.80;;;18.00;89.00;;;;;;4970801;28;20105;-86
2022/07/19 04:40:01;;;;;;;7.10;2.47;;;18.00;88.70;;;;;;4953103;28;20067;-88
2022/07/19 04:42:26;;;;;;;3.35;2.00;;;18.10;88.90;;;;;;4955900;28;20446;-88
2022/07/19 04:44:52;;;;;;;5.30;1.90;;;18.20;87.70;;;;;;4955454;28;20049;-88
2022/07/19 04:47:18;;;;;;;5.63;2.55;;;18.40;87.60;;;;;;4954078;28;20463;-87
2022/07/19 04:50:15;;;;;;;4.53;2.60;;;18.40;87.60;;;;;;4955040;28;20066;-88
2022/07/19 04:52:40;;;;;;;6.30;2.67;;;18.60;88.20;;;;;;4952057;28;20208;-87
2022/07/19 04:55:14;;;;;;;4.13;2.25;;;18.70;87.60;;;;;;4972604;28;20035;-87
2022/07/19 04:57:40;;;;;;;8.57;2.30;;;18.80;88.50;;;;;;4975126;28;20032;-88
2022/07/19 05:00:09;;;;;;;5.57;2.60;;;18.80;89.20;;;;;;4976206;28;20102;-88
2022/07/19 05:02:35;;;;;;;2.35;1.92;;;18.90;89.60;;;;;;4976564;28;20150;-89
2022/07/19 05:05:02;;;;;;;6.03;2.25;;;19.00;89.70;;;;;;4974689;28;20124;-88
2022/07/19 05:07:33;;;;;;;7.43;2.78;;;19.00;89.60;;;;;;4975906;28;20178;-88
2022/07/19 05:09:59;;;;;;;4.15;2.53;;;19.10;89.40;;;;;;4980148;28;20094;-88
2022/07/19 05:12:25;;;;;;;4.50;2.83;;;19.30;88.90;;;;;;4978712;28;20097;-88
2022/07/19 05:14:51;;;;;;;9.70;2.30;;;19.50;88.40;;;;;;4977252;28;20039;-88
2022/07/19 05:17:16;;;;;;;8.35;2.80;;;19.60;87.10;;;;;;4976150;28;20039;-87
2022/07/19 05:19:42;;;;;;;9.48;2.63;;;19.80;86.80;;;;;;4975756;28;20026;-87
2022/07/19 05:22:14;;;;;;;6.07;2.42;;;20.10;86.20;;;;;;4991887;23;20070;-88
2022/07/19 05:24:40;;;;;;;4.03;2.22;;;20.30;84.60;;;;;;5012257;28;20030;-88
2022/07/19 05:27:05;;;;;;;17.73;3.33;;;20.50;83.80;;;;;;5012690;28;20105;-87
2022/07/19 05:29:31;;;;;;;5.78;2.25;;;20.70;83.30;;;;;;5010477;28;20038;-88
2022/07/19 05:31:57;;;;;;;6.70;2.70;;;20.70;83.30;;;;;;5010024;28;20045;-88
2022/07/19 05:34:30;;;;;;;3.25;2.20;;;20.80;82.10;;;;;;4992595;28;20110;-88
2022/07/19 05:36:56;;;;;;;9.80;2.40;;;20.80;82.60;;;;;;4990999;28;20030;-88
2022/07/19 05:39:22;;;;;;;5.15;2.63;;;20.90;83.60;;;;;;4990280;28;20045;-88
2022/07/19 05:41:48;;;;;;;4.05;2.65;;;20.90;83.50;;;;;;4993254;28;20081;-88
2022/07/19 05:44:13;;;;;;;7.05;2.33;;;21.10;82.20;;;;;;4992564;28;20034;-88
2022/07/19 05:46:40;;;;;;;6.68;2.47;;;21.10;81.60;;;;;;4993007;28;20100;-88
2022/07/19 05:49:14;;;;;;;6.07;2.20;;;21.20;81.20;;;;;;4994706;28;20042;-89
2022/07/19 05:51:40;;;;;;;5.90;2.47;;;21.40;82.70;;;;;;4993026;28;20088;-88
2022/07/19 05:54:06;;;;;;;4.28;2.05;;;21.40;82.40;;;;;;4993781;28;20340;-89
2022/07/19 05:56:33;;;;;;;4.90;2.50;;;21.50;83.70;;;;;;4993380;28;20026;-89
2022/07/19 05:59:07;;;;;;;2.85;2.20;;;21.70;82.70;;;;;;4993037;28;20030;-87
2022/07/19 06:01:33;;;;;;;7.50;2.50;;;21.80;81.70;;;;;;4988089;28;20463;-88
2022/07/19 06:04:00;;;;;;;2.50;2.15;;;22.00;79.50;;;;;;4983951;28;20038;-89
2022/07/19 06:06:29;;;;;;;2.70;2.47;;;22.10;79.10;;;;;;4991143;28;20471;-89
2022/07/19 06:08:55;;;;;;;2.53;2.15;;;22.30;79.30;;;;;;4964394;28;20031;-89
2022/07/19 06:11:28;;;;;;;4.40;2.55;;;22.40;78.20;;;;;;4975150;28;20034;-87
2022/07/19 06:13:54;;;;;;;6.07;2.60;;;22.50;77.00;;;;;;4970219;28;20035;-88
2022/07/19 06:16:20;;;;;;;5.38;2.58;;;22.80;75.10;;;;;;4975195;28;20035;-87
2022/07/19 06:18:46;;;;;;;4.13;2.42;;;23.10;74.20;;;;;;4979485;28;20097;-86
2022/07/19 06:21:26;;;;;;;7.10;2.50;;;23.30;73.50;;;;;;4961550;28;20035;-87
2022/07/19 06:23:52;;;;;;;5.03;2.38;;;23.60;70.60;;;;;;4988078;28;20507;-86
2022/07/19 06:26:18;;;;;;;4.00;2.13;;;23.70;71.80;;;;;;4990974;28;20121;-88
2022/07/19 06:28:44;;;;;;;9.57;2.80;;;23.80;71.80;;;;;;4986057;28;20035;-87
2022/07/19 06:31:12;;;;;;;8.27;2.70;;;23.90;70.40;;;;;;5000433;28;20043;-89
2022/07/19 06:33:42;;;;;;;12.88;2.60;;;24.10;69.30;;;;;;4990551;28;20065;-87
2022/07/19 06:36:08;;;;;;;3.77;2.50;;;24.20;68.90;;;;;;4984351;28;20031;-87
2022/07/19 06:38:34;;;;;;;24.60;4.25;;;24.30;68.80;;;;;;4962695;28;20306;-87
2022/07/19 06:41:00;;;;;;;13.98;2.95;;;24.30;69.00;;;;;;4965191;28;20065;-87
2022/07/19 06:43:26;;;;;;;6.90;2.80;;;24.50;67.60;;;;;;4983040;28;20034;-87
2022/07/19 06:46:01;;;;;;;;;;;;;;;;;;;;;
2022/07/19 06:48:28;;;;;;;2.40;2.20;;;24.70;65.60;;;;;;4975658;28;20122;-87
2022/07/19 06:50:53;;;;;;;4.05;2.58;;;24.70;66.70;;;;;;4989039;28;20101;-87
2022/07/19 06:53:19;;;;;;;12.70;2.53;;;24.80;65.20;;;;;;4971600;28;20169;-87
2022/07/19 06:55:45;;;;;;;5.20;2.55;;;24.80;65.20;;;;;;4972328;28;20034;-88
2022/07/19 06:58:18;;;;;;;5.97;2.50;;;25.00;65.20;;;;;;4974055;28;20030;-88
2022/07/19 07:00:45;;;;;;;5.88;2.47;;;25.00;64.40;;;;;;4980816;28;20089;-88
2022/07/19 07:03:22;;;;;;;5.47;2.15;;;25.10;63.90;;;;;;4982131;28;20027;-88
2022/07/19 07:05:57;;;;;;;5.60;2.20;;;25.10;63.70;;;;;;4987973;28;20124;-88
2022/07/19 07:08:26;;;;;;;10.48;2.38;;;25.20;64.30;;;;;;4965950;28;20464;-88
2022/07/19 07:10:52;;;;;;;29.42;4.72;;;25.30;62.30;;;;;;4982963;28;20030;-87
2022/07/19 07:13:18;;;;;;;13.40;2.90;;;25.40;60.40;;;;;;4991453;28;20352;-87
2022/07/19 07:15:43;;;;;;;4.68;2.40;;;25.40;60.90;;;;;;4992156;28;20034;-89
2022/07/19 07:18:12;;;;;;;6.22;3.08;;;25.40;62.00;;;;;;4992413;28;20129;-87
2022/07/19 07:20:38;;;;;;;27.23;3.70;;;25.60;60.60;;;;;;4991461;28;20037;-88
2022/07/19 07:23:04;;;;;;;7.18;2.13;;;25.60;60.40;;;;;;4997105;28;20030;-87
2022/07/19 07:25:30;;;;;;;8.15;2.15;;;25.60;61.10;;;;;;4989539;28;20125;-89
2022/07/19 07:27:56;;;;;;;17.27;3.20;;;25.70;59.70;;;;;;4985871;28;20040;-89
2022/07/19 07:30:21;;;;;;;6.55;2.05;;;25.80;58.50;;;;;;4988527;28;20462;-89
2022/07/19 07:32:53;;;;;;;24.27;3.67;;;25.80;58.10;;;;;;4992121;28;20034;-89
2022/07/19 07:35:19;;;;;;;11.93;2.35;;;26.00;58.60;;;;;;4991346;28;20042;-88
2022/07/19 07:37:45;;;;;;;2.42;1.88;;;26.10;58.40;;;;;;4989862;28;20042;-88
2022/07/19 07:40:12;;;;;;;15.45;3.53;;;26.10;58.10;;;;;;4995113;28;20042;-89
2022/07/19 07:42:37;;;;;;;4.43;2.08;;;26.30;58.20;;;;;;4995229;28;20039;-87
2022/07/19 07:45:09;;;;;;;6.22;2.22;;;26.30;57.80;;;;;;5003016;28;20049;-88
2022/07/19 07:47:36;;;;;;;4.57;2.00;;;26.40;57.20;;;;;;5003811;28;20035;-88
2022/07/19 07:50:03;;;;;;;15.95;3.10;;;26.50;57.30;;;;;;5003982;28;20076;-87
2022/07/19 07:52:28;;;;;;;17.38;3.88;;;26.60;57.80;;;;;;5005508;28;20039;-87
2022/07/19 07:54:54;;;;;;;6.65;2.30;;;26.70;57.20;;;;;;5006728;28;20038;-87
2022/07/19 07:57:21;;;;;;;72.03;7.32;;;26.90;56.90;;;;;;5006833;28;20080;-87
2022/07/19 07:59:46;;;;;;;27.40;3.70;;;28.20;55.80;;;;;;5007273;28;20038;-87
2022/07/19 08:02:12;;;;;;;9.25;2.35;;;29.60;53.90;;;;;;5025588;28;20033;-87
2022/07/19 08:04:38;;;;;;;6.35;2.10;;;31.50;52.70;;;;;;5019950;28;20075;-86
2022/07/19 08:07:04;;;;;;;4.47;1.90;;;33.30;50.10;;;;;;5025045;28;20037;-87
2022/07/19 08:09:30;;;;;;;5.35;2.10;;;34.50;47.70;;;;;;5007941;28;20058;-87
2022/07/19 08:11:56;;;;;;;6.78;2.33;;;35.20;46.30;;;;;;5002387;28;20117;-87
2022/07/19 08:14:29;;;;;;;3.72;2.00;;;36.00;45.00;;;;;;4989880;28;20132;-86
2022/07/19 08:16:55;;;;;;;3.90;1.80;;;36.80;43.80;;;;;;4989656;28;20062;-87
2022/07/19 08:19:21;;;;;;;4.50;2.13;;;37.30;43.10;;;;;;4989777;28;20105;-87
2022/07/19 08:21:46;;;;;;;7.13;2.05;;;37.00;40.50;;;;;;4992735;28;20034;-87
2022/07/19 08:24:12;;;;;;;3.33;1.70;;;37.00;41.50;;;;;;4995444;28;20074;-88
2022/07/19 08:26:38;;;;;;;6.95;2.10;;;37.90;41.80;;;;;;5003206;28;20387;-86
2022/07/19 08:29:08;;;;;;;2.45;1.70;;;37.20;39.50;;;;;;4959205;28;20045;-87
2022/07/19 08:31:34;;;;;;;2.47;1.60;;;37.20;40.30;;;;;;4972407;28;20061;-86
2022/07/19 08:34:00;;;;;;;3.22;1.85;;;37.30;40.80;;;;;;4961994;28;20066;-87
2022/07/19 08:36:26;;;;;;;4.45;2.00;;;38.00;39.50;;;;;;4958015;28;20395;-87
2022/07/19 08:38:52;;;;;;;4.60;1.80;;;38.50;38.90;;;;;;4958037;28;20136;-87
2022/07/19 08:41:28;;;;;;;5.10;1.88;;;37.90;38.50;;;;;;4956985;28;20074;-86
2022/07/19 08:43:54;;;;;;;10.65;2.10;;;36.50;39.00;;;;;;4968611;28;20030;-86
2022/07/19 08:46:21;;;;;;;3.38;1.90;;;35.60;40.20;;;;;;4974281;28;20100;-87
2022/07/19 08:48:48;;;;;;;9.35;2.33;;;35.40;39.90;;;;;;4960728;28;20105;-86
2022/07/19 08:51:23;;;;;;;4.20;1.95;;;35.60;40.60;;;;;;4974027;28;20093;-88
2022/07/19 08:53:49;;;;;;;4.85;2.10;;;35.80;39.80;;;;;;4974721;28;20031;-87
2022/07/19 08:59:00;;;;;;;5.80;2.42;;;34.30;41.10;;;;;;4979687;28;20022;-88
2022/07/19 09:01:26;;;;;;;5.38;2.53;;;34.40;41.30;;;;;;4973568;28;20053;-87
2022/07/19 09:04:15;;;;;;;5.15;1.85;;;34.70;42.00;;;;;;4992232;28;20038;-86
2022/07/19 09:06:45;;;;;;;3.03;1.83;;;34.50;42.60;;;;;;4964900;28;20328;-85
2022/07/19 09:09:12;;;;;;;3.00;1.80;;;34.90;41.90;;;;;;4963780;28;20022;-86
2022/07/19 09:11:48;;;;;;;4.45;2.15;;;35.50;40.70;;;;;;4981807;28;20026;-86
2022/07/19 09:14:21;;;;;;;4.32;1.92;;;35.30;41.10;;;;;;4983447;28;20444;-87
2022/07/19 09:16:51;;;;;;;4.53;2.10;;;35.40;41.20;;;;;;4983014;28;20035;-88
2022/07/19 09:19:18;;;;;;;15.05;2.30;;;36.00;41.50;;;;;;4982343;28;20069;-88
2022/07/19 09:21:54;;;;;;;6.20;2.03;;;36.60;40.30;;;;;;4989517;28;20635;-87
2022/07/19 09:24:21;;;;;;;2.38;1.85;;;36.60;40.10;;;;;;4981370;28;20565;-88
2022/07/19 09:26:55;;;;;;;5.30;1.83;;;36.50;40.50;;;;;;4967414;28;20050;-88
2022/07/19 09:29:30;;;;;;;7.40;2.38;;;36.70;40.50;;;;;;4979097;28;20022;-89
2022/07/19 09:32:07;;;;;;;2.70;1.90;;;36.70;40.10;;;;;;4966103;28;20484;-87
2022/07/19 09:34:35;;;;;;;3.92;1.88;;;36.70;40.50;;;;;;4981683;28;20065;-88
2022/07/19 09:39:33;;;;;;;7.75;1.90;;;36.30;39.70;;;;;;4967815;28;20058;-89
2022/07/19 09:41:59;;;;;;;2.97;1.90;;;35.70;40.00;;;;;;4954932;28;20762;-87
2022/07/19 09:44:24;;;;;;;7.25;2.00;;;35.30;40.80;;;;;;4938514;29;20377;-89
2022/07/19 09:46:50;;;;;;;7.53;1.90;;;36.30;39.90;;;;;;4953537;28;20030;-88
2022/07/19 09:49:17;;;;;;;4.70;1.85;;;35.80;39.90;;;;;;4929138;28;20494;-87
2022/07/19 09:51:53;;;;;;;5.22;1.80;;;36.70;40.40;;;;;;4954907;28;20035;-88
2022/07/19 09:54:25;;;;;;;10.02;2.30;;;37.30;39.60;;;;;;4951425;28;20399;-88
2022/07/19 09:56:53;;;;;;;4.55;2.17;;;37.40;39.40;;;;;;4932188;29;20038;-88
2022/07/19 09:59:20;;;;;;;3.13;1.70;;;37.40;38.70;;;;;;4952583;28;20182;-89
2022/07/19 10:01:51;;;;;;;3.28;2.00;;;37.10;39.30;;;;;;4930387;28;20090;-89
2022/07/19 10:04:20;;;;;;;5.68;2.33;;;36.50;39.40;;;;;;4944269;28;20036;-88
2022/07/19 10:06:48;;;;;;;4.28;2.13;;;35.80;40.40;;;;;;4935052;29;20186;-89
2022/07/19 10:09:16;;;;;;;6.70;1.95;;;35.90;40.10;;;;;;4934613;28;20051;-87
2022/07/19 10:11:43;;;;;;;5.20;2.20;;;36.00;40.10;;;;;;4953446;28;20086;-89
2022/07/19 10:14:09;;;;;;;7.75;1.88;;;36.00;40.40;;;;;;4948388;28;20027;-89
2022/07/19 10:16:48;;;;;;;3.38;2.17;;;35.30;41.30;;;;;;4955186;28;20027;-87
2022/07/19 10:19:19;;;;;;;5.32;2.10;;;35.30;40.70;;;;;;4953503;28;20042;-87
2022/07/19 10:21:46;;;;;;;5.60;2.10;;;34.80;40.60;;;;;;4932725;29;20042;-88
2022/07/19 10:24:11;;;;;;;5.88;2.35;;;34.40;41.80;;;;;;4968168;28;20086;-88
2022/07/19 10:26:38;;;;;;;2.60;1.90;;;34.20;41.80;;;;;;4953638;29;20039;-88
2022/07/19 10:29:14;;;;;;;5.13;2.47;;;34.20;41.70;;;;;;4924724;29;20031;-88
2022/07/19 10:31:41;;;;;;;5.97;2.20;;;34.10;41.30;;;;;;4943900;29;20046;-88
2022/07/19 10:34:20;;;;;;;3.97;2.83;;;33.80;42.00;;;;;;4956583;28;20035;-88
2022/07/19 10:36:48;;;;;;;8.48;2.03;;;33.20;41.90;;;;;;4954984;28;20039;-88
2022/07/19 10:39:35;;;;;;;8.15;2.38;;;33.40;41.70;;;;;;4956552;28;20554;-88
2022/07/19 10:42:03;;;;;;;6.43;2.20;;;33.70;41.40;;;;;;4971489;28;20035;-88
2022/07/19 10:44:29;;;;;;;3.58;2.00;;;33.80;41.10;;;;;;4971509;28;20031;-88
2022/07/19 10:46:55;;;;;;;5.35;2.35;;;33.90;40.50;;;;;;4955670;28;20027;-89
2022/07/19 10:49:41;;;;;;;2.30;1.75;;;34.10;41.40;;;;;;4955667;28;20480;-90
2022/07/19 10:52:28;;;;;;;6.25;2.33;;;34.50;40.80;;;;;;4955582;28;20840;-88
2022/07/19 10:55:27;;;;;;;4.63;2.35;;;35.10;40.60;;;;;;4971262;28;20124;-89
2022/07/19 10:58:05;;;;;;;3.33;2.03;;;35.40;40.10;;;;;;4955731;28;20031;-90
2022/07/19 11:00:32;;;;;;;10.77;2.50;;;35.60;40.00;;;;;;4955313;28;20039;-88
2022/07/19 11:03:20;;;;;;;12.60;2.20;;;35.90;40.50;;;;;;4954800;28;20509;-88
2022/07/19 11:05:54;;;;;;;5.72;2.50;;;36.20;39.80;;;;;;4955127;28;20031;-88
2022/07/19 11:08:32;;;;;;;5.05;2.17;;;36.50;39.50;;;;;;4955287;28;20383;-90
2022/07/19 11:11:04;;;;;;;4.40;2.17;;;36.50;39.50;;;;;;4971347;28;20042;-89
2022/07/19 11:13:29;;;;;;;8.70;2.30;;;35.80;38.90;;;;;;4954314;28;20130;-89
2022/07/19 11:15:58;;;;;;;7.65;2.10;;;35.60;40.10;;;;;;4954547;29;20568;-88
2022/07/19 11:18:24;;;;;;;7.63;2.40;;;35.50;41.00;;;;;;4955327;29;20035;-88
2022/07/19 11:20:50;;;;;;;8.00;2.20;;;35.80;41.20;;;;;;4955359;28;20028;-90
2022/07/19 11:23:22;;;;;;;9.00;2.15;;;35.50;40.20;;;;;;4955973;29;20039;-88
2022/07/19 11:25:51;;;;;;;6.97;2.80;;;35.30;40.80;;;;;;4954855;28;20035;-87
2022/07/19 11:28:24;;;;;;;4.43;2.25;;;35.60;40.00;;;;;;4954936;28;20094;-89
2022/07/19 11:30:50;;;;;;;5.18;2.20;;;35.80;40.10;;;;;;4954960;28;20031;-89
2022/07/19 11:33:19;;;;;;;11.52;2.22;;;36.10;40.60;;;;;;4954728;28;20402;-89
2022/07/19 11:35:58;;;;;;;7.25;2.30;;;35.60;39.40;;;;;;4954857;28;20039;-89
2022/07/19 11:38:34;;;;;;;3.30;1.98;;;35.20;38.90;;;;;;4954707;29;20450;-88
2022/07/19 11:40:59;;;;;;;3.80;2.00;;;34.80;40.60;;;;;;4970693;28;20041;-90
2022/07/19 11:43:25;;;;;;;4.20;2.30;;;35.10;41.40;;;;;;4954062;28;20023;-89
2022/07/19 11:45:51;;;;;;;2.50;1.83;;;35.50;40.40;;;;;;4970735;28;20042;-88
2022/07/19 11:48:28;;;;;;;10.48;2.33;;;36.30;40.40;;;;;;4970272;28;20046;-89
2022/07/19 11:51:08;;;;;;;4.95;2.30;;;36.60;38.70;;;;;;4954605;29;20487;-89
2022/07/19 11:53:37;;;;;;;12.40;2.20;;;36.00;39.70;;;;;;4970614;28;20063;-88
2022/07/19 11:56:05;;;;;;;7.75;2.20;;;35.50;39.70;;;;;;4954760;28;20035;-89
2022/07/19 11:58:31;;;;;;;5.90;1.90;;;35.70;40.20;;;;;;4954391;28;20032;-89
2022/07/19 12:01:05;;;;;;;6.35;2.10;;;35.70;39.50;;;;;;4955255;29;20027;-89
2022/07/19 12:03:31;;;;;;;7.05;2.30;;;35.80;39.20;;;;;;4969995;28;20086;-89
2022/07/19 12:06:05;;;;;;;3.10;2.00;;;35.70;40.10;;;;;;4953651;28;20039;-88
2022/07/19 12:08:43;;;;;;;6.13;2.45;;;35.90;38.40;;;;;;4955427;28;20035;-88
2022/07/19 12:11:45;;;;;;;7.07;2.30;;;35.80;40.00;;;;;;4954371;28;20031;-88
2022/07/19 12:14:29;;;;;;;5.50;2.25;;;36.00;39.60;;;;;;4954247;28;20108;-89
2022/07/19 12:17:15;;;;;;;4.60;2.42;;;35.90;39.70;;;;;;4954262;29;20031;-89
2022/07/19 12:20:21;;;;;;;8.40;2.50;;;35.40;39.40;;;;;;4955755;28;20034;-89
2022/07/19 12:22:47;;;;;;;6.63;2.97;;;35.60;39.40;;;;;;4955229;28;20043;-91
2022/07/19 12:25:59;;;;;;;5.22;2.45;;;35.60;39.70;;;;;;4970174;28;20660;-89
2022/07/19 12:28:26;;;;;;;4.25;2.47;;;35.40;39.00;;;;;;4970392;28;20066;-90
2022/07/19 12:31:05;;;;;;;7.65;2.95;;;35.40;38.60;;;;;;4970140;28;20122;-88
2022/07/19 12:33:31;;;;;;;7.63;2.75;;;35.70;38.90;;;;;;4955336;28;20034;-90
2022/07/19 12:35:56;;;;;;;5.97;2.53;;;36.10;38.00;;;;;;4954232;29;20034;-89
2022/07/19 12:38:33;;;;;;;20.63;3.67;;;36.20;37.50;;;;;;4970282;28;20031;-90
2022/07/19 12:41:07;;;;;;;5.65;2.83;;;35.90;37.60;;;;;;4953924;28;20483;-87
2022/07/19 12:43:34;;;;;;;7.80;2.72;;;36.10;37.90;;;;;;4953700;29;20035;-89
2022/07/19 12:46:01;;;;;;;5.80;2.90;;;35.90;37.40;;;;;;4955409;28;20031;-90
2022/07/19 12:48:28;;;;;;;7.68;2.83;;;35.80;37.20;;;;;;4954116;28;20042;-89
2022/07/19 12:50:53;;;;;;;9.52;3.05;;;35.90;37.00;;;;;;4953971;29;20115;-92
2022/07/19 12:53:20;;;;;;;7.68;3.35;;;36.20;37.50;;;;;;4953730;28;20062;-89
2022/07/19 12:59:39;;;;;;;9.18;3.22;;;36.60;35.90;;;;;;4955756;29;20170;-87
2022/07/19 13:02:15;;;;;;;11.93;3.00;;;36.80;36.60;;;;;;4953758;28;20035;-88
2022/07/19 13:04:42;;;;;;;8.80;3.95;;;37.10;37.00;;;;;;4953711;28;20041;-89
2022/07/19 13:07:10;;;;;;;5.63;3.13;;;37.00;36.10;;;;;;4969775;28;20121;-91
2022/07/19 13:09:36;;;;;;;10.73;2.75;;;37.30;36.10;;;;;;4953965;29;20038;-89
2022/07/19 13:12:05;;;;;;;10.32;2.97;;;37.60;36.70;;;;;;4953998;28;20035;-88
2022/07/19 13:14:32;;;;;;;7.18;3.15;;;38.20;35.60;;;;;;4969929;28;20042;-89
2022/07/19 13:16:57;;;;;;;6.97;2.95;;;38.40;35.70;;;;;;4971990;28;20039;-90
2022/07/19 13:19:24;;;;;;;5.28;3.40;;;38.50;35.60;;;;;;4973598;28;20043;-90
2022/07/19 13:21:52;;;;;;;8.50;3.10;;;38.40;34.30;;;;;;4957258;28;20031;-89
2022/07/19 13:24:17;;;;;;;10.00;2.80;;;37.70;35.20;;;;;;4957308;28;20034;-90
2022/07/19 13:26:43;;;;;;;4.68;3.10;;;37.50;35.30;;;;;;4973469;28;20031;-89
2022/07/19 13:29:09;;;;;;;5.85;3.72;;;37.60;34.80;;;;;;4941215;29;20031;-90
2022/07/19 13:31:41;;;;;;;11.82;3.40;;;37.80;35.60;;;;;;4956598;29;20066;-90
2022/07/19 13:34:07;;;;;;;9.63;2.90;;;38.30;35.00;;;;;;4956904;29;20039;-88
2022/07/19 13:36:32;;;;;;;11.77;3.10;;;38.30;35.10;;;;;;4957210;28;20035;-89
2022/07/19 13:38:58;;;;;;;5.18;3.28;;;38.40;36.20;;;;;;4956291;28;20039;-90
2022/07/19 13:41:24;;;;;;;5.63;3.40;;;38.30;34.40;;;;;;4955731;28;20042;-89
2022/07/19 13:43:52;;;;;;;8.48;3.78;;;37.50;35.10;;;;;;4955432;28;20382;-90
2022/07/19 13:46:19;;;;;;;7.32;3.83;;;37.60;34.90;;;;;;4955955;28;20027;-88
2022/07/19 13:48:45;;;;;;;8.23;3.33;;;36.90;35.00;;;;;;4955997;29;20042;-91
2022/07/19 13:51:11;;;;;;;8.23;3.20;;;37.00;36.00;;;;;;4972019;28;20031;-89
2022/07/19 13:53:37;;;;;;;8.40;3.35;;;36.90;36.10;;;;;;4955544;28;20039;-90
2022/07/19 13:56:15;;;;;;;10.75;3.40;;;37.20;36.20;;;;;;4955363;28;20118;-91
2022/07/19 13:58:41;;;;;;;8.52;3.30;;;37.60;35.50;;;;;;4971543;28;20126;-89
2022/07/19 14:01:06;;;;;;;7.18;2.97;;;37.80;35.40;;;;;;4955460;28;20189;-89
2022/07/19 14:03:32;;;;;;;3.95;2.55;;;37.80;34.70;;;;;;4970612;28;20042;-88
2022/07/19 14:05:58;;;;;;;5.68;3.25;;;38.10;34.90;;;;;;4954782;28;20054;-89
2022/07/19 14:08:24;;;;;;;7.82;3.20;;;38.30;35.20;;;;;;4955043;29;20027;-89
2022/07/19 14:10:49;;;;;;;8.32;3.40;;;38.00;34.60;;;;;;4956737;28;20032;-89
2022/07/19 14:13:31;;;;;;;5.53;2.90;;;37.70;35.40;;;;;;4955200;29;20039;-88
2022/07/19 14:15:57;;;;;;;11.35;3.97;;;38.10;34.90;;;;;;4971299;28;20043;-89
2022/07/19 14:18:35;;;;;;;9.35;3.70;;;37.90;34.50;;;;;;4955407;28;20143;-88
2022/07/19 14:21:01;;;;;;;4.07;2.97;;;37.00;34.70;;;;;;4954721;29;20031;-90
2022/07/19 14:23:27;;;;;;;5.38;3.50;;;36.40;35.20;;;;;;4970839;28;20031;-88
2022/07/19 14:25:53;;;;;;;6.07;2.90;;;36.80;36.20;;;;;;4955290;28;20467;-89
2022/07/19 14:28:19;;;;;;;11.40;3.20;;;37.00;36.10;;;;;;4954205;28;20034;-89
2022/07/19 14:30:45;;;;;;;10.93;3.15;;;37.20;35.40;;;;;;4955156;29;20035;-89
2022/07/19 14:33:11;;;;;;;5.40;2.85;;;37.00;35.60;;;;;;4956466;28;20035;-91
2022/07/19 14:35:37;;;;;;;12.18;3.58;;;36.60;35.60;;;;;;4971078;28;20043;-88
2022/07/19 14:40:22;;;;;;;14.63;3.47;;;36.20;35.80;;;;;;5106646;27;1343615;-87
2022/07/19 14:42:48;;;;;;;8.40;2.97;;;35.60;37.00;;;;;;5094741;28;20059;-86
2022/07/19 14:45:21;;;;;;;5.30;3.05;;;35.80;36.60;;;;;;5073609;28;20024;-88